Time;durP1;ratioP1;P1;durP2;ratioP2;P2;SDS_P1;SDS_P2;PMS_P1;PMS_P2;Temp;Humidity;BMP_temperature;BMP_pressure;BME280_temperature;BME280_humidity;BME280_pressure;Samples;Min_cycle;Max_cycle;Signal;HPM_P1;HPM_P2
2024/04/21 00:00:15;;;;;;;1.35;1.25;;;;;;;;;;5372838;26;20011;-76
2024/04/21 00:02:41;;;;;;;4.63;1.70;;;;;;;;;;5368713;26;20446;-77
2024/04/21 00:05:07;;;;;;;1.77;1.67;;;;;;;;;;5365168;26;20003;-78
2024/04/21 00:07:32;;;;;;;1.98;1.65;;;;;;;;;;5369542;26;19996;-76
2024/04/21 00:09:58;;;;;;;1.65;1.55;;;;;;;;;;5372582;26;20083;-77
2024/04/21 00:12:24;;;;;;;2.60;1.55;;;;;;;;;;5367805;26;20444;-76
2024/04/21 00:14:50;;;;;;;3.35;1.73;;;;;;;;;;5362620;26;19992;-76
2024/04/21 00:17:15;;;;;;;2.20;1.83;;;;;;;;;;5370795;26;20029;-76
2024/04/21 00:19:41;;;;;;;0.65;0.65;;;;;;;;;;5358903;26;19992;-77
2024/04/21 00:22:07;;;;;;;0.55;0.55;;;;;;;;;;5359118;26;19992;-78
2024/04/21 00:24:32;;;;;;;2.22;2.03;;;;;;;;;;5370624;26;20787;-76
2024/04/21 00:26:58;;;;;;;0.52;0.52;;;;;;;;;;5354428;26;20015;-77
2024/04/21 00:29:24;;;;;;;1.80;1.45;;;;;;;;;;5371332;26;20000;-78
2024/04/21 00:31:49;;;;;;;0.20;0.20;;;;;;;;;;5370116;26;19996;-78
2024/04/21 00:34:15;;;;;;;0.30;0.30;;;;;;;;;;5370540;26;20402;-77
2024/04/21 00:36:41;;;;;;;0.30;0.30;;;;;;;;;;5383782;26;20010;-77
2024/04/21 00:39:06;;;;;;;1.33;1.23;;;;;;;;;;5371654;26;20338;-78
2024/04/21 00:41:32;;;;;;;3.45;3.15;;;;;;;;;;5406636;26;20018;-78
2024/04/21 00:43:58;;;;;;;2.80;2.60;;;;;;;;;;5375444;26;20004;-77
2024/04/21 00:46:24;;;;;;;2.72;2.63;;;;;;;;;;5406258;26;19995;-76
2024/04/21 00:48:50;;;;;;;1.30;0.95;;;;;;;;;;5408005;26;20023;-77
2024/04/21 00:51:19;;;;;;;0.25;0.25;;;;;;;;;;5397683;26;21155;-78
2024/04/21 00:53:45;;;;;;;4.20;3.20;;;;;;;;;;5408420;26;20774;-74
2024/04/21 00:56:12;;;;;;;3.17;2.45;;;;;;;;;;5407278;26;19999;-76
2024/04/21 00:58:38;;;;;;;2.38;2.03;;;;;;;;;;5405607;26;19992;-76
2024/04/21 01:01:04;;;;;;;4.47;4.22;;;;;;;;;;5406414;26;20039;-77
2024/04/21 01:03:30;;;;;;;2.05;1.52;;;;;;;;;;5408256;26;19995;-76
2024/04/21 01:05:56;;;;;;;4.10;3.72;;;;;;;;;;5407241;26;20555;-76
2024/04/21 01:08:21;;;;;;;1.15;1.02;;;;;;;;;;5408240;26;19996;-77
2024/04/21 01:10:47;;;;;;;0.40;0.40;;;;;;;;;;5406962;26;19999;-78
2024/04/21 01:13:13;;;;;;;0.73;0.50;;;;;;;;;;5402448;26;20083;-77
2024/04/21 01:15:39;;;;;;;2.63;2.33;;;;;;;;;;5406081;26;19999;-77
2024/04/21 01:18:08;;;;;;;1.00;1.00;;;;;;;;;;5407122;26;20458;-75
2024/04/21 01:20:34;;;;;;;1.38;1.25;;;;;;;;;;5403768;26;20662;-78
2024/04/21 01:23:00;;;;;;;0.98;0.88;;;;;;;;;;5407119;26;20003;-78
2024/04/21 01:25:26;;;;;;;1.63;1.52;;;;;;;;;;5403640;26;20014;-77
2024/04/21 01:27:52;;;;;;;0.30;0.30;;;;;;;;;;5401926;26;19999;-79
2024/04/21 01:30:18;;;;;;;2.65;2.25;;;;;;;;;;5402235;26;20124;-77
2024/04/21 01:32:44;;;;;;;1.35;1.23;;;;;;;;;;5405394;26;20822;-78
2024/04/21 01:35:09;;;;;;;5.32;3.95;;;;;;;;;;5375835;26;19992;-78
2024/04/21 01:37:35;;;;;;;0.30;0.30;;;;;;;;;;5403030;26;20003;-78
2024/04/21 01:40:02;;;;;;;1.65;1.45;;;;;;;;;;5405401;26;19992;-78
2024/04/21 01:42:27;;;;;;;0.30;0.30;;;;;;;;;;5392118;26;19999;-77
2024/04/21 01:44:53;;;;;;;3.97;3.70;;;;;;;;;;5403370;26;20518;-77
2024/04/21 01:47:19;;;;;;;0.50;0.50;;;;;;;;;;5398602;26;19987;-78
2024/04/21 01:49:47;;;;;;;1.25;1.15;;;;;;;;;;5400255;26;20467;-77
2024/04/21 01:52:12;;;;;;;1.38;1.17;;;;;;;;;;5394786;26;20446;-78
2024/04/21 01:54:38;;;;;;;0.20;0.20;;;;;;;;;;5368654;26;20006;-78
2024/04/21 01:57:04;;;;;;;4.20;1.27;;;;;;;;;;5356313;26;20001;-78
2024/04/21 01:59:30;;;;;;;1.92;1.58;;;;;;;;;;5357231;26;19997;-76
2024/04/21 02:01:55;;;;;;;2.15;1.95;;;;;;;;;;5367308;26;20007;-76
2024/04/21 02:04:21;;;;;;;0.47;0.47;;;;;;;;;;5353205;26;20015;-78
2024/04/21 02:06:47;;;;;;;0.22;0.22;;;;;;;;;;5362724;26;20001;-76
2024/04/21 02:09:12;;;;;;;1.95;1.50;;;;;;;;;;5360262;26;19992;-77
2024/04/21 02:11:38;;;;;;;1.60;1.50;;;;;;;;;;5371075;26;19992;-76
2024/04/21 02:14:04;;;;;;;5.30;3.30;;;;;;;;;;5357542;26;20506;-77
2024/04/21 02:16:29;;;;;;;3.53;3.35;;;;;;;;;;5368013;26;20007;-76
2024/04/21 02:18:55;;;;;;;1.60;1.50;;;;;;;;;;5363564;26;20435;-76
2024/04/21 02:21:21;;;;;;;2.88;2.10;;;;;;;;;;5372871;26;19996;-78
2024/04/21 02:23:49;;;;;;;0.30;0.25;;;;;;;;;;5368022;26;20032;-76
2024/04/21 02:26:15;;;;;;;4.97;4.78;;;;;;;;;;5368793;26;20012;-77
2024/04/21 02:28:41;;;;;;;5.32;2.75;;;;;;;;;;5360946;26;19996;-76
2024/04/21 02:31:07;;;;;;;0.32;0.32;;;;;;;;;;5372778;26;20403;-76
2024/04/21 02:33:32;;;;;;;0.35;0.35;;;;;;;;;;5372859;26;20000;-77
2024/04/21 02:35:58;;;;;;;0.68;0.68;;;;;;;;;;5371608;26;20007;-76
2024/04/21 02:38:24;;;;;;;0.50;0.32;;;;;;;;;;5370978;26;20008;-76
2024/04/21 02:40:50;;;;;;;0.30;0.30;;;;;;;;;;5371637;26;19992;-76
2024/04/21 02:43:15;;;;;;;2.65;2.33;;;;;;;;;;5374187;26;20004;-76
2024/04/21 02:45:41;;;;;;;3.00;1.88;;;;;;;;;;5368366;26;19992;-77
2024/04/21 02:48:07;;;;;;;0.90;0.90;;;;;;;;;;5374404;26;19996;-78
2024/04/21 02:50:36;;;;;;;0.30;0.30;;;;;;;;;;5374970;26;20055;-77
2024/04/21 02:53:01;;;;;;;0.20;0.20;;;;;;;;;;5360440;26;20005;-77
2024/04/21 02:55:27;;;;;;;0.43;0.43;;;;;;;;;;5374401;26;19992;-76
2024/04/21 02:57:53;;;;;;;0.82;0.82;;;;;;;;;;5373233;26;20312;-77
2024/04/21 03:00:19;;;;;;;1.02;0.93;;;;;;;;;;5374626;26;20019;-77
2024/04/21 03:02:44;;;;;;;5.10;3.70;;;;;;;;;;5374915;26;20424;-76
2024/04/21 03:05:10;;;;;;;1.27;0.82;;;;;;;;;;5372608;26;20000;-77
2024/04/21 03:07:36;;;;;;;0.40;0.40;;;;;;;;;;5360780;26;20434;-78
2024/04/21 03:10:02;;;;;;;6.43;4.03;;;;;;;;;;5374309;26;19996;-76
2024/04/21 03:12:27;;;;;;;0.70;0.70;;;;;;;;;;5373784;26;20077;-77
2024/04/21 03:14:53;;;;;;;2.70;1.33;;;;;;;;;;5374004;26;20770;-77
2024/04/21 03:17:21;;;;;;;0.30;0.30;;;;;;;;;;5373988;26;20004;-77
2024/04/21 03:19:48;;;;;;;2.05;1.83;;;;;;;;;;5371561;26;20020;-77
2024/04/21 03:22:13;;;;;;;1.98;1.67;;;;;;;;;;5373559;26;20007;-77
2024/04/21 03:24:39;;;;;;;4.68;2.78;;;;;;;;;;5372904;26;20007;-77
2024/04/21 03:27:05;;;;;;;0.75;0.75;;;;;;;;;;5369141;26;20003;-77
2024/04/21 03:29:30;;;;;;;5.95;5.40;;;;;;;;;;5373040;26;20466;-77
2024/04/21 03:31:56;;;;;;;2.35;2.15;;;;;;;;;;5368424;26;20538;-76
2024/04/21 03:34:22;;;;;;;3.28;2.92;;;;;;;;;;5369358;26;20003;-78
2024/04/21 03:36:48;;;;;;;0.40;0.40;;;;;;;;;;5365768;26;20004;-78
2024/04/21 03:39:14;;;;;;;1.20;1.13;;;;;;;;;;5369008;26;20003;-78
2024/04/21 03:41:39;;;;;;;0.20;0.20;;;;;;;;;;5371613;26;19993;-77
2024/04/21 03:44:05;;;;;;;0.60;0.60;;;;;;;;;;5368858;26;20027;-75
2024/04/21 03:46:31;;;;;;;1.40;1.30;;;;;;;;;;5369333;26;20012;-78
2024/04/21 03:48:56;;;;;;;0.38;0.38;;;;;;;;;;5363503;26;20082;-77
2024/04/21 03:51:22;;;;;;;0.40;0.40;;;;;;;;;;5366426;26;19989;-77
2024/04/21 03:53:48;;;;;;;3.10;2.85;;;;;;;;;;5362042;26;20003;-76
2024/04/21 03:56:15;;;;;;;0.88;0.85;;;;;;;;;;5373132;26;20375;-76
2024/04/21 03:58:41;;;;;;;0.43;0.43;;;;;;;;;;5372654;26;20004;-76
2024/04/21 04:01:06;;;;;;;2.13;1.92;;;;;;;;;;5373419;26;19996;-77
2024/04/21 04:03:32;;;;;;;0.55;0.50;;;;;;;;;;5364854;26;20035;-76
2024/04/21 04:05:58;;;;;;;0.30;0.30;;;;;;;;;;5370342;26;20943;-76
2024/04/21 04:08:24;;;;;;;1.92;1.60;;;;;;;;;;5373472;26;19992;-77
2024/04/21 04:10:50;;;;;;;0.52;0.52;;;;;;;;;;5372877;26;19998;-77
2024/04/21 04:13:17;;;;;;;1.67;1.30;;;;;;;;;;5372714;26;19996;-77
2024/04/21 04:15:42;;;;;;;2.72;2.33;;;;;;;;;;5372417;26;20545;-77
2024/04/21 04:18:08;;;;;;;1.55;0.50;;;;;;;;;;5365231;26;20003;-77
2024/04/21 04:20:34;;;;;;;2.80;2.53;;;;;;;;;;5370723;26;20007;-77
2024/04/21 04:23:00;;;;;;;0.20;0.20;;;;;;;;;;5371013;26;19996;-77
2024/04/21 04:25:27;;;;;;;7.90;2.53;;;;;;;;;;5369855;26;20023;-77
2024/04/21 04:27:52;;;;;;;1.23;1.13;;;;;;;;;;5368537;26;20015;-77
2024/04/21 04:30:18;;;;;;;3.10;2.92;;;;;;;;;;5364507;26;20028;-77
2024/04/21 04:32:45;;;;;;;0.40;0.40;;;;;;;;;;5369210;26;19993;-77
2024/04/21 04:35:10;;;;;;;0.30;0.30;;;;;;;;;;5370378;26;20019;-75
2024/04/21 04:37:37;;;;;;;3.80;3.28;;;;;;;;;;5367677;26;19996;-75
2024/04/21 04:40:03;;;;;;;0.68;0.50;;;;;;;;;;5364588;26;20004;-76
2024/04/21 04:42:29;;;;;;;0.30;0.30;;;;;;;;;;5369570;26;20328;-78
2024/04/21 04:44:55;;;;;;;0.50;0.50;;;;;;;;;;5365989;26;19992;-76
2024/04/21 04:47:20;;;;;;;0.20;0.20;;;;;;;;;;5366787;26;20035;-77
2024/04/21 04:49:46;;;;;;;0.50;0.50;;;;;;;;;;5359250;26;19996;-78
2024/04/21 04:52:12;;;;;;;0.40;0.40;;;;;;;;;;5372682;26;20012;-76
2024/04/21 04:54:40;;;;;;;0.30;0.30;;;;;;;;;;5371368;26;20001;-78
2024/04/21 04:57:05;;;;;;;3.90;1.65;;;;;;;;;;5372597;26;20004;-75
2024/04/21 04:59:31;;;;;;;3.42;2.10;;;;;;;;;;5362035;26;20018;-77
2024/04/21 05:01:57;;;;;;;0.32;0.32;;;;;;;;;;5373795;26;20527;-78
2024/04/21 05:04:22;;;;;;;0.20;0.20;;;;;;;;;;5368918;26;20011;-77
2024/04/21 05:06:48;;;;;;;1.92;1.30;;;;;;;;;;5375051;26;20003;-79
2024/04/21 05:09:14;;;;;;;1.98;1.25;;;;;;;;;;5373415;26;20004;-79
2024/04/21 05:11:39;;;;;;;0.52;0.52;;;;;;;;;;5375530;26;20473;-77
2024/04/21 05:14:05;;;;;;;2.22;1.58;;;;;;;;;;5373361;26;19994;-78
2024/04/21 05:16:31;;;;;;;1.73;1.63;;;;;;;;;;5373346;26;20003;-76
2024/04/21 05:18:56;;;;;;;0.20;0.20;;;;;;;;;;5371731;26;19996;-76
2024/04/21 05:21:22;;;;;;;2.35;2.15;;;;;;;;;;5373785;26;20003;-78
2024/04/21 05:23:48;;;;;;;3.13;1.45;;;;;;;;;;5374006;26;20470;-76
2024/04/21 05:26:13;;;;;;;1.63;1.50;;;;;;;;;;5368943;26;19992;-78
2024/04/21 05:28:39;;;;;;;2.55;2.35;;;;;;;;;;5338225;26;20416;-79
2024/04/21 05:31:05;;;;;;;0.45;0.45;;;;;;;;;;5331864;26;20565;-76
2024/04/21 05:33:30;;;;;;;0.85;0.85;;;;;;;;;;5335963;26;20039;-77
2024/04/21 05:35:56;;;;;;;0.32;0.32;;;;;;;;;;5329258;26;20348;-79
2024/04/21 05:38:22;;;;;;;0.88;0.80;;;;;;;;;;5331721;26;20016;-77
2024/04/21 05:40:47;;;;;;;5.25;1.02;;;;;;;;;;5330962;26;20005;-76
2024/04/21 05:43:13;;;;;;;0.93;0.73;;;;;;;;;;5333373;26;20429;-76
2024/04/21 05:45:39;;;;;;;0.55;0.50;;;;;;;;;;5327231;26;19997;-77
2024/04/21 05:48:05;;;;;;;0.57;0.57;;;;;;;;;;5338445;26;20368;-77
2024/04/21 05:50:31;;;;;;;1.50;1.40;;;;;;;;;;5338146;26;20007;-75
2024/04/21 05:52:57;;;;;;;1.33;1.23;;;;;;;;;;5339122;26;20019;-76
2024/04/21 05:55:22;;;;;;;1.15;1.08;;;;;;;;;;5338561;26;19992;-79
2024/04/21 05:57:48;;;;;;;1.50;1.40;;;;;;;;;;5337402;26;19993;-77
2024/04/21 06:00:15;;;;;;;2.22;1.88;;;;;;;;;;5339635;26;19993;-76
2024/04/21 06:02:41;;;;;;;0.68;0.63;;;;;;;;;;5343965;26;20001;-76
2024/04/21 06:05:06;;;;;;;2.78;2.13;;;;;;;;;;5358319;26;20073;-78
2024/04/21 06:07:32;;;;;;;0.40;0.40;;;;;;;;;;5371487;26;20443;-78
2024/04/21 06:09:58;;;;;;;0.77;0.77;;;;;;;;;;5363347;26;20432;-77
2024/04/21 06:12:24;;;;;;;1.00;1.00;;;;;;;;;;5366279;26;20004;-76
2024/04/21 06:14:49;;;;;;;1.80;1.58;;;;;;;;;;5364174;26;19993;-77
2024/04/21 06:17:15;;;;;;;0.40;0.40;;;;;;;;;;5373970;26;20411;-77
2024/04/21 06:19:41;;;;;;;2.00;1.48;;;;;;;;;;5374026;26;20015;-77
2024/04/21 06:22:07;;;;;;;1.33;1.23;;;;;;;;;;5373984;26;20346;-77
2024/04/21 06:24:32;;;;;;;2.20;1.48;;;;;;;;;;5361719;26;20004;-79
2024/04/21 06:26:58;;;;;;;1.42;1.23;;;;;;;;;;5369570;26;19988;-78
2024/04/21 06:29:24;;;;;;;0.43;0.40;;;;;;;;;;5365077;26;20040;-77
2024/04/21 06:31:49;;;;;;;1.23;1.13;;;;;;;;;;5362077;26;19996;-77
2024/04/21 06:34:15;;;;;;;0.80;0.80;;;;;;;;;;5362764;26;19996;-77
2024/04/21 06:36:41;;;;;;;4.53;2.67;;;;;;;;;;5368707;26;20112;-78
2024/04/21 06:39:06;;;;;;;1.20;1.10;;;;;;;;;;5358017;26;19993;-79
2024/04/21 06:41:32;;;;;;;3.42;2.28;;;;;;;;;;5373174;26;20439;-79
2024/04/21 06:43:59;;;;;;;1.27;1.05;;;;;;;;;;5360666;26;20015;-77
2024/04/21 06:46:25;;;;;;;1.10;0.90;;;;;;;;;;5371714;26;20061;-78
2024/04/21 06:48:50;;;;;;;1.10;0.88;;;;;;;;;;5373468;26;19988;-77
2024/04/21 06:51:16;;;;;;;4.10;1.13;;;;;;;;;;5366480;26;19995;-76
2024/04/21 06:53:42;;;;;;;0.45;0.45;;;;;;;;;;5371992;26;20862;-77
2024/04/21 06:56:07;;;;;;;5.75;2.22;;;;;;;;;;5372814;26;19999;-78
2024/04/21 06:58:33;;;;;;;0.60;0.60;;;;;;;;;;5371296;26;20016;-78
2024/04/21 07:00:59;;;;;;;0.80;0.28;;;;;;;;;;5373178;26;20312;-78
2024/04/21 07:03:24;;;;;;;0.68;0.68;;;;;;;;;;5373235;26;19992;-78
2024/04/21 07:05:50;;;;;;;0.50;0.50;;;;;;;;;;5364428;26;19996;-77
2024/04/21 07:08:16;;;;;;;4.90;1.77;;;;;;;;;;5373595;26;20847;-78
2024/04/21 07:10:42;;;;;;;0.50;0.35;;;;;;;;;;5367096;26;19993;-77
2024/04/21 07:13:07;;;;;;;1.27;0.85;;;;;;;;;;5373311;26;20002;-77
2024/04/21 07:15:33;;;;;;;2.25;2.05;;;;;;;;;;5372226;26;20348;-77
2024/04/21 07:17:59;;;;;;;1.10;1.00;;;;;;;;;;5371081;26;20070;-76
2024/04/21 07:20:24;;;;;;;0.60;0.60;;;;;;;;;;5365195;26;19996;-78
2024/04/21 07:22:50;;;;;;;1.00;0.55;;;;;;;;;;5372906;26;20328;-77
2024/04/21 07:25:17;;;;;;;0.30;0.30;;;;;;;;;;5368844;26;20011;-77
2024/04/21 07:27:43;;;;;;;0.40;0.40;;;;;;;;;;5362691;26;20542;-77
2024/04/21 07:30:09;;;;;;;1.20;1.05;;;;;;;;;;5356370;26;20115;-77
2024/04/21 07:32:35;;;;;;;0.80;0.75;;;;;;;;;;5370811;26;20000;-77
2024/04/21 07:35:00;;;;;;;0.30;0.25;;;;;;;;;;5352597;26;20000;-77
2024/04/21 07:37:26;;;;;;;0.52;0.45;;;;;;;;;;5363850;26;20443;-77
2024/04/21 07:39:52;;;;;;;1.90;1.02;;;;;;;;;;5372652;26;20004;-76
2024/04/21 07:42:18;;;;;;;0.63;0.60;;;;;;;;;;5371049;26;20000;-79
2024/04/21 07:44:43;;;;;;;0.45;0.30;;;;;;;;;;5359462;26;20462;-77
2024/04/21 07:47:09;;;;;;;1.48;1.38;;;;;;;;;;5365148;26;20008;-77
2024/04/21 07:49:35;;;;;;;2.40;1.85;;;;;;;;;;5371930;26;19996;-77
2024/04/21 07:52:00;;;;;;;1.02;0.77;;;;;;;;;;5372121;26;19996;-76
2024/04/21 07:54:26;;;;;;;1.02;0.95;;;;;;;;;;5370339;26;20367;-76
2024/04/21 07:56:52;;;;;;;0.40;0.28;;;;;;;;;;5372192;26;20008;-76
2024/04/21 07:59:17;;;;;;;0.30;0.30;;;;;;;;;;5369275;26;20020;-77
2024/04/21 08:01:43;;;;;;;0.98;0.88;;;;;;;;;;5365302;26;20000;-77
2024/04/21 08:04:09;;;;;;;0.30;0.30;;;;;;;;;;5372780;26;20201;-76
2024/04/21 08:06:34;;;;;;;0.40;0.40;;;;;;;;;;5369777;26;20011;-76
2024/04/21 08:09:00;;;;;;;5.28;0.88;;;;;;;;;;5370389;26;19996;-78
2024/04/21 08:11:26;;;;;;;1.10;0.85;;;;;;;;;;5371293;26;19996;-77
2024/04/21 08:13:52;;;;;;;0.50;0.50;;;;;;;;;;5365215;26;20078;-77
2024/04/21 08:16:17;;;;;;;0.32;0.32;;;;;;;;;;5362573;26;19997;-76
2024/04/21 08:18:43;;;;;;;0.68;0.47;;;;;;;;;;5371883;26;19992;-76
2024/04/21 08:21:09;;;;;;;1.27;1.17;;;;;;;;;;5364416;26;19996;-77
2024/04/21 08:23:35;;;;;;;0.98;0.85;;;;;;;;;;5372122;26;20040;-76
2024/04/21 08:26:03;;;;;;;0.60;0.60;;;;;;;;;;5368968;26;20000;-77
2024/04/21 08:28:29;;;;;;;0.93;0.93;;;;;;;;;;5370427;26;20040;-77
2024/04/21 08:30:54;;;;;;;0.50;0.50;;;;;;;;;;5363349;26;20004;-78
2024/04/21 08:33:20;;;;;;;0.40;0.40;;;;;;;;;;5371423;26;19992;-78
2024/04/21 08:35:52;;;;;;;1.38;0.98;;;;;;;;;;5371851;26;19992;-75
2024/04/21 08:38:18;;;;;;;3.20;2.10;;;;;;;;;;5369767;26;20070;-78
2024/04/21 08:40:45;;;;;;;0.68;0.52;;;;;;;;;;5370633;26;19996;-77
2024/04/21 08:43:12;;;;;;;1.10;1.05;;;;;;;;;;5364384;26;20077;-77
2024/04/21 08:45:39;;;;;;;2.15;1.48;;;;;;;;;;5368922;26;20048;-78
2024/04/21 08:48:05;;;;;;;0.88;0.73;;;;;;;;;;5362192;26;20018;-77
2024/04/21 08:50:31;;;;;;;1.73;1.10;;;;;;;;;;5365816;26;20008;-79
2024/04/21 08:52:56;;;;;;;2.20;0.52;;;;;;;;;;5368127;26;20452;-76
2024/04/21 08:55:23;;;;;;;2.15;1.40;;;;;;;;;;5361536;26;20073;-76
2024/04/21 08:57:49;;;;;;;0.63;0.63;;;;;;;;;;5367889;26;20718;-77
2024/04/21 09:00:19;;;;;;;0.45;0.38;;;;;;;;;;5371437;26;20015;-77
2024/04/21 09:02:45;;;;;;;1.40;1.27;;;;;;;;;;5371781;26;20078;-78
2024/04/21 09:05:11;;;;;;;2.70;0.85;;;;;;;;;;5371426;26;20008;-78
2024/04/21 09:07:38;;;;;;;0.55;0.30;;;;;;;;;;5370863;26;20004;-77
2024/04/21 09:10:04;;;;;;;3.50;1.60;;;;;;;;;;5370339;26;19996;-76
2024/04/21 09:12:31;;;;;;;1.63;1.52;;;;;;;;;;5354965;26;20003;-77
2024/04/21 09:14:57;;;;;;;1.23;1.13;;;;;;;;;;5371117;26;20073;-77
2024/04/21 09:17:24;;;;;;;0.60;0.40;;;;;;;;;;5370100;26;20069;-78
2024/04/21 09:19:49;;;;;;;0.50;0.50;;;;;;;;;;5370400;26;19992;-78
2024/04/21 09:22:15;;;;;;;0.68;0.47;;;;;;;;;;5370862;26;20417;-78
2024/04/21 09:24:41;;;;;;;0.95;0.90;;;;;;;;;;5369738;26;20167;-78
2024/04/21 09:27:06;;;;;;;0.40;0.40;;;;;;;;;;5365706;26;20015;-76
2024/04/21 09:29:32;;;;;;;0.30;0.30;;;;;;;;;;5369539;26;20000;-77
2024/04/21 09:31:58;;;;;;;1.65;0.82;;;;;;;;;;5369670;26;20036;-78
2024/04/21 09:34:24;;;;;;;1.27;1.08;;;;;;;;;;5369674;26;20070;-78
2024/04/21 09:36:51;;;;;;;0.30;0.30;;;;;;;;;;5369095;26;19992;-77
2024/04/21 09:39:16;;;;;;;0.40;0.32;;;;;;;;;;5368302;26;20859;-78
2024/04/21 09:41:47;;;;;;;0.47;0.47;;;;;;;;;;5366273;26;20000;-77
2024/04/21 09:44:17;;;;;;;0.85;0.57;;;;;;;;;;5359959;26;20024;-79
2024/04/21 09:46:43;;;;;;;2.17;1.70;;;;;;;;;;5367012;26;20000;-76
2024/04/21 09:49:10;;;;;;;2.00;1.33;;;;;;;;;;5370930;26;20047;-78
2024/04/21 09:51:36;;;;;;;0.40;0.40;;;;;;;;;;5363695;26;20012;-78
2024/04/21 09:54:03;;;;;;;0.68;0.68;;;;;;;;;;5357916;26;19997;-77
2024/04/21 09:56:36;;;;;;;0.70;0.70;;;;;;;;;;5369440;26;20012;-78
2024/04/21 09:59:03;;;;;;;1.17;0.68;;;;;;;;;;5363832;26;20014;-77
2024/04/21 10:01:32;;;;;;;0.63;0.50;;;;;;;;;;5370460;26;19996;-77
2024/04/21 10:04:00;;;;;;;0.88;0.77;;;;;;;;;;5369893;26;20436;-77
2024/04/21 10:06:28;;;;;;;0.95;0.80;;;;;;;;;;5369525;26;20016;-78
2024/04/21 10:08:57;;;;;;;0.85;0.80;;;;;;;;;;5368156;26;20439;-78
2024/04/21 10:11:22;;;;;;;0.77;0.70;;;;;;;;;;5370002;26;20008;-77
2024/04/21 10:13:48;;;;;;;1.38;1.27;;;;;;;;;;5369222;26;19992;-76
2024/04/21 10:16:14;;;;;;;0.50;0.40;;;;;;;;;;5369595;26;20476;-78
2024/04/21 10:18:40;;;;;;;0.70;0.60;;;;;;;;;;5369949;26;20007;-77
2024/04/21 10:21:06;;;;;;;0.40;0.40;;;;;;;;;;5363837;26;20632;-77
2024/04/21 10:23:32;;;;;;;1.15;0.88;;;;;;;;;;5363485;26;20007;-77
2024/04/21 10:25:58;;;;;;;2.45;0.93;;;;;;;;;;5366541;26;20003;-77
2024/04/21 10:28:25;;;;;;;0.20;0.20;;;;;;;;;;5366091;26;20338;-77
2024/04/21 10:30:51;;;;;;;0.73;0.60;;;;;;;;;;5359850;26;20340;-77
2024/04/21 10:33:27;;;;;;;0.73;0.73;;;;;;;;;;5363592;26;20001;-78
2024/04/21 10:35:53;;;;;;;0.35;0.25;;;;;;;;;;5352216;26;20373;-78
2024/04/21 10:38:18;;;;;;;0.43;0.40;;;;;;;;;;5388904;26;19993;-77
2024/04/21 10:40:47;;;;;;;0.60;0.57;;;;;;;;;;5371646;26;19993;-76
2024/04/21 10:43:14;;;;;;;0.20;0.20;;;;;;;;;;5371101;26;20014;-78
2024/04/21 10:45:40;;;;;;;0.30;0.30;;;;;;;;;;5372886;26;20016;-75
2024/04/21 10:48:08;;;;;;;1.60;1.50;;;;;;;;;;5369319;26;20390;-77
2024/04/21 10:50:36;;;;;;;0.28;0.20;;;;;;;;;;5365430;26;20004;-77
2024/04/21 10:53:02;;;;;;;0.40;0.40;;;;;;;;;;5370427;26;20108;-77
2024/04/21 10:55:30;;;;;;;0.60;0.60;;;;;;;;;;5372161;26;19996;-78
2024/04/21 10:57:56;;;;;;;0.45;0.45;;;;;;;;;;5368180;26;20000;-77
2024/04/21 11:00:21;;;;;;;3.65;2.85;;;;;;;;;;5373013;26;20000;-78
2024/04/21 11:02:48;;;;;;;0.60;0.60;;;;;;;;;;5372119;26;20839;-76
2024/04/21 11:05:14;;;;;;;0.20;0.20;;;;;;;;;;5367379;26;20004;-78
2024/04/21 11:07:40;;;;;;;0.40;0.35;;;;;;;;;;5372520;26;20077;-76
2024/04/21 11:10:06;;;;;;;0.30;0.30;;;;;;;;;;5372446;26;19992;-77
2024/04/21 11:12:32;;;;;;;0.35;0.32;;;;;;;;;;5372196;26;20069;-77
2024/04/21 11:14:58;;;;;;;3.58;2.25;;;;;;;;;;5372293;26;20292;-76
2024/04/21 11:17:24;;;;;;;0.98;0.88;;;;;;;;;;5370599;26;20011;-77
2024/04/21 11:19:50;;;;;;;6.22;2.10;;;;;;;;;;5371563;26;20000;-77
2024/04/21 11:22:20;;;;;;;0.38;0.38;;;;;;;;;;5368217;26;20016;-76
2024/04/21 11:24:45;;;;;;;0.65;0.57;;;;;;;;;;5369619;26;20000;-78
2024/04/21 11:27:16;;;;;;;0.85;0.85;;;;;;;;;;5369910;26;20008;-77
2024/04/21 11:29:41;;;;;;;1.00;0.50;;;;;;;;;;5365188;26;20000;-78
2024/04/21 11:32:10;;;;;;;0.75;0.57;;;;;;;;;;5363729;26;20015;-77
2024/04/21 11:34:39;;;;;;;0.25;0.25;;;;;;;;;;5371245;26;20026;-78
2024/04/21 11:37:05;;;;;;;1.13;0.98;;;;;;;;;;5372683;26;20016;-77
2024/04/21 11:39:30;;;;;;;1.10;0.82;;;;;;;;;;5371698;26;20084;-77
2024/04/21 11:41:56;;;;;;;0.63;0.60;;;;;;;;;;5372714;26;19996;-77
2024/04/21 11:44:22;;;;;;;0.63;0.57;;;;;;;;;;5368918;26;20064;-78
2024/04/21 11:46:51;;;;;;;0.20;0.20;;;;;;;;;;5367665;26;20011;-76
2024/04/21 11:49:17;;;;;;;0.28;0.28;;;;;;;;;;5372043;26;20346;-78
2024/04/21 11:51:42;;;;;;;1.10;0.82;;;;;;;;;;5372626;26;20081;-78
2024/04/21 11:54:08;;;;;;;0.35;0.35;;;;;;;;;;5371778;26;20069;-78
2024/04/21 11:56:34;;;;;;;0.65;0.65;;;;;;;;;;5371022;26;20934;-78
2024/04/21 11:59:00;;;;;;;0.40;0.30;;;;;;;;;;5369240;26;19996;-78
2024/04/21 12:01:25;;;;;;;1.25;1.05;;;;;;;;;;5371915;26;20011;-79
2024/04/21 12:03:51;;;;;;;0.43;0.40;;;;;;;;;;5369038;26;19996;-80
2024/04/21 12:06:17;;;;;;;0.63;0.63;;;;;;;;;;5372231;26;19992;-78
2024/04/21 12:08:42;;;;;;;0.70;0.70;;;;;;;;;;5368985;26;20007;-78
2024/04/21 12:11:10;;;;;;;2.47;1.25;;;;;;;;;;5369936;26;20099;-77
2024/04/21 12:13:37;;;;;;;0.77;0.77;;;;;;;;;;5371573;26;20723;-76
2024/04/21 12:16:02;;;;;;;0.98;0.60;;;;;;;;;;5370771;26;20000;-77
2024/04/21 12:18:28;;;;;;;0.77;0.73;;;;;;;;;;5367651;26;20444;-78
2024/04/21 12:20:54;;;;;;;0.22;0.22;;;;;;;;;;5367680;26;19992;-76
2024/04/21 12:23:19;;;;;;;0.77;0.57;;;;;;;;;;5372638;26;20024;-78
2024/04/21 12:25:45;;;;;;;2.70;1.02;;;;;;;;;;5369056;26;20427;-76
2024/04/21 12:28:11;;;;;;;1.90;1.75;;;;;;;;;;5366265;26;20001;-78
2024/04/21 12:30:36;;;;;;;0.88;0.85;;;;;;;;;;5362659;26;20919;-78
2024/04/21 12:33:02;;;;;;;0.40;0.40;;;;;;;;;;5370242;26;20000;-78
2024/04/21 12:35:28;;;;;;;0.35;0.25;;;;;;;;;;5372478;26;20000;-78
2024/04/21 12:37:54;;;;;;;1.65;1.48;;;;;;;;;;5368797;26;20008;-78
2024/04/21 12:40:19;;;;;;;0.40;0.40;;;;;;;;;;5371908;26;20010;-77
2024/04/21 12:42:45;;;;;;;0.30;0.20;;;;;;;;;;5362697;26;20073;-78
2024/04/21 12:45:11;;;;;;;0.28;0.28;;;;;;;;;;5371661;26;20292;-77
2024/04/21 12:47:38;;;;;;;0.77;0.30;;;;;;;;;;5371676;26;20000;-77
2024/04/21 12:50:04;;;;;;;0.63;0.63;;;;;;;;;;5359974;26;20001;-78
2024/04/21 12:52:30;;;;;;;0.50;0.30;;;;;;;;;;5362688;26;20062;-77
2024/04/21 12:54:56;;;;;;;0.93;0.90;;;;;;;;;;5370865;26;20124;-80
2024/04/21 12:57:21;;;;;;;0.60;0.60;;;;;;;;;;5364519;26;20397;-78
2024/04/21 12:59:47;;;;;;;0.68;0.50;;;;;;;;;;5369651;26;20831;-78
2024/04/21 13:02:16;;;;;;;2.03;0.60;;;;;;;;;;5371881;26;19992;-79
2024/04/21 13:04:42;;;;;;;0.77;0.77;;;;;;;;;;5371638;26;20020;-79
2024/04/21 13:07:09;;;;;;;0.40;0.40;;;;;;;;;;5371229;26;20320;-79
2024/04/21 13:09:35;;;;;;;0.13;0.13;;;;;;;;;;5371061;26;19996;-78
2024/04/21 13:12:02;;;;;;;0.73;0.73;;;;;;;;;;5362010;26;20003;-77
2024/04/21 13:14:28;;;;;;;1.73;0.60;;;;;;;;;;5371535;26;20008;-77
2024/04/21 13:16:53;;;;;;;0.75;0.68;;;;;;;;;;5368243;26;20008;-78
2024/04/21 13:19:23;;;;;;;0.63;0.63;;;;;;;;;;5371327;26;20000;-77
2024/04/21 13:21:48;;;;;;;5.47;1.17;;;;;;;;;;5371420;26;20015;-78
2024/04/21 13:24:14;;;;;;;1.30;1.20;;;;;;;;;;5369179;26;20425;-78
2024/04/21 13:26:40;;;;;;;1.05;1.02;;;;;;;;;;5362974;26;20063;-77
2024/04/21 13:29:06;;;;;;;1.20;0.88;;;;;;;;;;5368967;26;20020;-76
2024/04/21 13:31:33;;;;;;;0.85;0.85;;;;;;;;;;5370531;26;20018;-75
2024/04/21 13:33:59;;;;;;;0.45;0.45;;;;;;;;;;5371037;26;20016;-77
2024/04/21 13:36:25;;;;;;;0.70;0.55;;;;;;;;;;5368780;26;20015;-77
2024/04/21 13:38:50;;;;;;;0.45;0.30;;;;;;;;;;5364822;26;20012;-78
2024/04/21 13:41:16;;;;;;;1.02;0.93;;;;;;;;;;5368453;26;20464;-78
2024/04/21 13:43:42;;;;;;;0.93;0.73;;;;;;;;;;5370975;26;19993;-77
2024/04/21 13:46:07;;;;;;;0.68;0.55;;;;;;;;;;5370713;26;20006;-78
2024/04/21 13:48:33;;;;;;;0.32;0.22;;;;;;;;;;5371045;26;20019;-78
2024/04/21 13:50:59;;;;;;;0.82;0.63;;;;;;;;;;5370047;26;20362;-78
2024/04/21 13:53:24;;;;;;;0.75;0.73;;;;;;;;;;5368636;26;20007;-78
2024/04/21 13:55:50;;;;;;;7.72;2.17;;;;;;;;;;5369415;26;20438;-77
2024/04/21 13:58:16;;;;;;;1.33;0.90;;;;;;;;;;5363728;26;20008;-77
2024/04/21 14:00:42;;;;;;;0.88;0.75;;;;;;;;;;5370608;26;20002;-78
2024/04/21 14:03:08;;;;;;;0.30;0.30;;;;;;;;;;5363638;26;20090;-78
2024/04/21 14:05:33;;;;;;;0.50;0.45;;;;;;;;;;5363166;26;20000;-78
2024/04/21 14:07:59;;;;;;;1.52;1.23;;;;;;;;;;5358180;26;20452;-78
2024/04/21 14:10:25;;;;;;;0.30;0.30;;;;;;;;;;5365366;26;19992;-76
2024/04/21 14:12:50;;;;;;;0.40;0.40;;;;;;;;;;5373346;26;20010;-78
2024/04/21 14:15:16;;;;;;;0.55;0.55;;;;;;;;;;5371736;26;20082;-78
2024/04/21 14:17:42;;;;;;;0.70;0.70;;;;;;;;;;5374484;26;20546;-77
2024/04/21 14:20:08;;;;;;;0.40;0.30;;;;;;;;;;5373235;26;19988;-77
2024/04/21 14:22:33;;;;;;;0.45;0.43;;;;;;;;;;5360561;26;20008;-77
2024/04/21 14:24:59;;;;;;;0.85;0.40;;;;;;;;;;5370510;26;19988;-77
2024/04/21 14:27:25;;;;;;;0.85;0.68;;;;;;;;;;5373105;26;20384;-78
2024/04/21 14:29:50;;;;;;;0.40;0.40;;;;;;;;;;5371792;26;20349;-77
2024/04/21 14:32:17;;;;;;;1.73;1.25;;;;;;;;;;5373347;26;20015;-77
2024/04/21 14:34:42;;;;;;;1.45;1.02;;;;;;;;;;5366996;26;20001;-77